createdAt,value
2023-01-22T00:03:46.560Z,-0.20
2023-01-22T00:08:48.862Z,-0.20
2023-01-22T00:13:50.686Z,-0.10
2023-01-22T00:18:52.484Z,-0.20
2023-01-22T00:23:54.279Z,0.00
2023-01-22T00:28:56.025Z,-0.20
2023-01-22T00:33:58.069Z,-0.30
2023-01-22T00:38:59.881Z,-0.30
2023-01-22T00:44:01.753Z,-0.20
2023-01-22T00:49:03.687Z,-0.20
2023-01-22T00:54:05.528Z,-0.30
2023-01-22T00:59:10.437Z,-0.30
2023-01-22T01:04:13.682Z,-0.30
2023-01-22T01:09:15.474Z,-0.20
2023-01-22T01:14:17.257Z,-0.30
2023-01-22T01:19:20.665Z,-0.40
2023-01-22T01:24:22.531Z,-0.20
2023-01-22T01:29:24.309Z,-0.40
2023-01-22T01:34:26.144Z,-0.40
2023-01-22T01:39:27.936Z,-0.30
2023-01-22T01:44:31.813Z,-0.40
2023-01-22T01:49:49.329Z,-0.30
2023-01-22T01:54:54.843Z,-0.20
2023-01-22T01:59:57.878Z,-0.20
2023-01-22T02:04:59.698Z,-0.20
2023-01-22T02:10:05.086Z,-0.20
2023-01-22T02:15:08.445Z,-0.20
2023-01-22T02:20:10.978Z,-0.30
2023-01-22T02:25:12.967Z,-0.20
2023-01-22T02:30:15.293Z,-0.20
2023-01-22T02:35:17.296Z,-0.20
2023-01-22T02:40:19.596Z,-0.20
2023-01-22T02:45:21.982Z,-0.10
2023-01-22T02:50:23.750Z,-0.20
2023-01-22T02:55:25.569Z,-0.20
2023-01-22T03:00:27.350Z,-0.20
2023-01-22T03:05:31.120Z,-0.20
2023-01-22T03:10:33.060Z,-0.20
2023-01-22T03:15:56.477Z,-0.20
2023-01-22T03:21:17.007Z,-0.20
2023-01-22T03:26:19.802Z,-0.20
2023-01-22T03:31:21.612Z,-0.10
2023-01-22T03:36:23.399Z,-0.10
2023-01-22T03:41:25.203Z,-0.10
2023-01-22T03:46:27.888Z,-0.10
2023-01-22T03:51:29.827Z,-0.10
2023-01-22T03:56:31.946Z,-0.10
2023-01-22T04:01:34.131Z,-0.10
2023-01-22T04:06:35.898Z,0.00
2023-01-22T04:11:37.688Z,0.00
2023-01-22T04:16:39.695Z,-0.10
2023-01-22T04:21:41.661Z,0.00
2023-01-22T04:26:46.550Z,0.00
2023-01-22T04:31:48.395Z,0.10
2023-01-22T04:36:50.216Z,0.10
2023-01-22T04:41:51.965Z,0.10
2023-01-22T04:46:53.707Z,0.10
2023-01-22T04:51:56.296Z,0.10
2023-01-22T04:57:01.335Z,0.10
2023-01-22T05:02:03.858Z,0.10
2023-01-22T05:07:05.712Z,0.00
2023-01-22T05:12:07.612Z,0.00
2023-01-22T05:17:09.414Z,-0.10
2023-01-22T05:22:11.220Z,-0.10
2023-01-22T05:27:13.038Z,-0.20
2023-01-22T05:32:15.762Z,-0.10
2023-01-22T05:37:17.824Z,-0.20
2023-01-22T05:42:20.971Z,-0.20
2023-01-22T05:47:22.785Z,-0.20
2023-01-22T05:52:24.758Z,-0.20
2023-01-22T05:57:27.893Z,-0.10
2023-01-22T06:02:29.869Z,-0.20
2023-01-22T06:07:31.978Z,-0.10
2023-01-22T06:12:33.722Z,-0.10
2023-01-22T06:17:35.484Z,-0.30
2023-01-22T06:22:37.304Z,-0.20
2023-01-22T06:27:39.071Z,-0.30
2023-01-22T06:32:40.844Z,-0.20
2023-01-22T06:37:42.625Z,-0.10
2023-01-22T06:42:44.397Z,-0.20
2023-01-22T06:47:46.788Z,-0.20
2023-01-22T06:52:48.659Z,-0.20
2023-01-22T06:57:50.439Z,-0.20
2023-01-22T07:02:52.619Z,-0.10
2023-01-22T07:07:55.195Z,-0.10
2023-01-22T07:12:59.109Z,-0.10
2023-01-22T07:18:00.905Z,-0.10
2023-01-22T07:23:03.304Z,-0.10
2023-01-22T07:28:06.856Z,-0.20
2023-01-22T07:33:11.283Z,-0.20
2023-01-22T07:38:13.061Z,-0.20
2023-01-22T07:43:15.240Z,-0.10
2023-01-22T07:48:17.070Z,-0.20
2023-01-22T07:53:19.058Z,-0.10
2023-01-22T07:58:20.853Z,-0.10
2023-01-22T08:03:22.667Z,-0.10
2023-01-22T08:08:24.533Z,0.00
2023-01-22T08:13:26.489Z,0.00
2023-01-22T08:18:28.707Z,0.10
2023-01-22T08:23:30.726Z,0.00
2023-01-22T08:28:32.759Z,0.00
2023-01-22T08:33:34.646Z,0.00
2023-01-22T08:38:36.403Z,0.10
2023-01-22T08:43:38.196Z,0.10
2023-01-22T08:48:42.417Z,0.00
2023-01-22T08:53:44.246Z,0.10
2023-01-22T08:58:50.240Z,0.10
2023-01-22T09:03:52.188Z,0.00
2023-01-22T09:08:55.373Z,0.00
2023-01-22T09:13:58.249Z,0.20
2023-01-22T09:19:00.289Z,0.10
2023-01-22T09:24:02.028Z,0.10
2023-01-22T09:29:06.142Z,0.10
2023-01-22T09:34:07.935Z,0.10
2023-01-22T09:39:09.904Z,0.10
2023-01-22T09:44:21.768Z,0.30
2023-01-22T09:49:44.623Z,0.20
2023-01-22T09:54:47.075Z,0.20
2023-01-22T09:59:51.745Z,0.30
2023-01-22T10:04:59.246Z,0.20
2023-01-22T10:10:25.069Z,0.20
2023-01-22T10:15:27.480Z,0.30
2023-01-22T10:20:29.499Z,0.30
2023-01-22T10:25:33.806Z,0.40
2023-01-22T10:30:46.281Z,0.40
2023-01-22T10:35:49.902Z,0.50
2023-01-22T10:41:03.755Z,0.60
2023-01-22T10:46:24.623Z,0.40
2023-01-22T10:51:32.705Z,0.40
2023-01-22T10:56:37.431Z,0.40
2023-01-22T11:01:39.828Z,0.40
2023-01-22T11:06:46.493Z,0.40
2023-01-22T11:11:56.407Z,0.40
2023-01-22T11:17:10.039Z,0.40
2023-01-22T11:22:28.750Z,0.50
2023-01-22T11:27:46.045Z,0.50
2023-01-22T11:33:25.921Z,0.50
2023-01-22T11:38:36.603Z,0.50
2023-01-22T11:43:55.769Z,0.60
2023-01-22T11:49:22.375Z,0.60
2023-01-22T11:54:49.243Z,0.60
2023-01-22T12:00:20.592Z,0.60
2023-01-22T12:06:03.053Z,0.60
2023-01-22T12:11:26.779Z,0.60
2023-01-22T12:16:38.063Z,0.60
2023-01-22T12:22:09.038Z,0.70
2023-01-22T12:27:25.520Z,0.70
2023-01-22T12:32:30.337Z,0.70
2023-01-22T12:37:46.622Z,0.80
2023-01-22T12:43:08.715Z,0.70
2023-01-22T12:48:19.560Z,0.70
2023-01-22T12:53:25.986Z,0.70
2023-01-22T12:58:30.581Z,0.70
2023-01-22T13:03:33.572Z,0.70
2023-01-22T13:08:39.746Z,0.70
2023-01-22T13:13:51.011Z,0.80
2023-01-22T13:18:55.687Z,0.80
2023-01-22T13:24:25.037Z,0.80
2023-01-22T13:29:33.173Z,0.90
2023-01-22T13:34:35.011Z,0.80
2023-01-22T13:39:36.735Z,0.80
2023-01-22T13:44:41.561Z,0.80
2023-01-22T13:49:43.746Z,0.90
2023-01-22T13:55:13.171Z,0.80
2023-01-22T14:00:23.773Z,0.80
2023-01-22T14:05:37.268Z,0.80
2023-01-22T14:10:43.518Z,0.90
2023-01-22T14:15:57.955Z,1.10
2023-01-22T14:20:59.851Z,0.90
2023-01-22T14:26:04.547Z,1.20
2023-01-22T14:31:06.629Z,0.90
2023-01-22T14:36:08.643Z,1.60
2023-01-22T14:41:10.428Z,1.00
2023-01-22T14:46:12.193Z,0.90
2023-01-22T14:51:14.065Z,0.90
2023-01-22T14:56:15.855Z,0.90
2023-01-22T15:01:23.158Z,0.80
2023-01-22T15:06:25.134Z,0.80
2023-01-22T15:11:26.898Z,1.00
2023-01-22T15:16:28.731Z,0.90
2023-01-22T15:21:30.560Z,1.00
2023-01-22T15:26:35.350Z,0.90
2023-01-22T15:31:37.517Z,0.90
2023-01-22T15:36:41.962Z,0.90
2023-01-22T15:41:46.073Z,0.90
2023-01-22T15:46:47.875Z,0.90
2023-01-22T15:51:49.714Z,0.90
2023-01-22T15:56:51.487Z,0.90
2023-01-22T16:01:53.321Z,0.80
2023-01-22T16:06:55.059Z,0.90
2023-01-22T16:11:57.426Z,0.90
2023-01-22T16:17:00.557Z,0.90
2023-01-22T16:22:02.443Z,0.90
2023-01-22T16:27:04.234Z,0.90
2023-01-22T16:32:06.436Z,0.80
2023-01-22T16:37:08.205Z,0.80
2023-01-22T16:42:10.009Z,0.80
2023-01-22T16:47:11.861Z,0.90
2023-01-22T16:52:22.428Z,0.90
2023-01-22T16:57:24.939Z,0.90
2023-01-22T17:02:26.972Z,0.90
2023-01-22T17:07:33.913Z,0.90
2023-01-22T17:12:36.002Z,0.90
2023-01-22T17:17:37.826Z,0.90
2023-01-22T17:22:39.651Z,0.80
2023-01-22T17:27:41.434Z,0.80
2023-01-22T17:32:43.355Z,1.00
2023-01-22T17:37:45.560Z,0.90
2023-01-22T17:42:47.414Z,0.90
2023-01-22T17:47:49.363Z,0.90
2023-01-22T17:52:51.999Z,0.90
2023-01-22T17:57:57.402Z,0.90
2023-01-22T18:02:59.219Z,0.90
2023-01-22T18:08:01.125Z,0.90
2023-01-22T18:13:02.895Z,1.10
2023-01-22T18:18:04.737Z,1.00
2023-01-22T18:23:06.541Z,1.00
2023-01-22T18:28:08.306Z,1.00
2023-01-22T18:33:13.700Z,0.90
2023-01-22T18:38:16.004Z,0.90
2023-01-22T18:43:18.237Z,0.90
2023-01-22T18:48:21.443Z,1.00
2023-01-22T18:53:24.076Z,0.90
2023-01-22T18:58:34.323Z,1.00
2023-01-22T19:03:36.667Z,1.00
2023-01-22T19:08:39.668Z,1.00
2023-01-22T19:13:42.555Z,0.90
2023-01-22T19:18:46.662Z,1.00
2023-01-22T19:23:51.845Z,1.10
2023-01-22T19:28:56.171Z,1.00
2023-01-22T19:33:59.088Z,1.00
2023-01-22T19:39:05.580Z,1.00
2023-01-22T19:44:09.158Z,1.00
2023-01-22T19:49:12.961Z,0.90
2023-01-22T19:54:15.110Z,1.00
2023-01-22T19:59:19.460Z,1.00
2023-01-22T20:04:27.128Z,1.00
2023-01-22T20:09:30.397Z,1.00
2023-01-22T20:14:35.444Z,1.00
2023-01-22T20:19:38.290Z,1.00
2023-01-22T20:24:41.651Z,0.90
2023-01-22T20:29:43.521Z,1.00
2023-01-22T20:34:48.821Z,1.00
2023-01-22T20:39:50.658Z,1.00
2023-01-22T20:44:52.504Z,1.10
2023-01-22T20:49:54.270Z,1.00
2023-01-22T20:55:01.724Z,1.00
2023-01-22T21:00:05.289Z,1.00
2023-01-22T21:05:07.515Z,1.00
2023-01-22T21:10:10.210Z,1.00
2023-01-22T21:15:12.451Z,1.00
2023-01-22T21:20:14.213Z,1.10
2023-01-22T21:25:16.228Z,1.10
2023-01-22T21:30:18.395Z,1.10
2023-01-22T21:35:20.643Z,1.10
2023-01-22T21:40:22.585Z,1.10
2023-01-22T21:45:42.875Z,1.00
2023-01-22T21:50:44.722Z,1.00
2023-01-22T21:55:51.246Z,1.00
2023-01-22T22:00:54.781Z,1.10
2023-01-22T22:05:57.573Z,1.00
2023-01-22T22:11:00.114Z,1.00
2023-01-22T22:16:03.860Z,1.10
2023-01-22T22:21:07.374Z,1.10
2023-01-22T22:26:10.758Z,1.10
2023-01-22T22:31:15.485Z,1.10
2023-01-22T22:36:19.881Z,1.20
2023-01-22T22:41:28.438Z,1.10
2023-01-22T22:46:35.527Z,1.20
2023-01-22T22:51:39.503Z,1.10
2023-01-22T22:56:41.453Z,1.20
2023-01-22T23:01:43.216Z,1.20
2023-01-22T23:06:46.278Z,1.10
2023-01-22T23:11:51.850Z,1.20
2023-01-22T23:16:53.717Z,1.20
2023-01-22T23:21:57.956Z,1.20
2023-01-22T23:26:59.736Z,1.20
2023-01-22T23:32:01.496Z,1.20
2023-01-22T23:37:03.254Z,1.20
2023-01-22T23:42:05.026Z,1.20
2023-01-22T23:47:06.756Z,1.30
2023-01-22T23:52:08.652Z,1.20
2023-01-22T23:57:10.623Z,1.20
